sensor_id;sensor_type;location;lat;lon;timestamp;temperature;humidity
71668;DHT22;59504;54.806;9.640;2023-07-31T00:00:15;14.50;68.80
71668;DHT22;59504;54.806;9.640;2023-07-31T00:02:16;14.50;69.10
71668;DHT22;59504;54.806;9.640;2023-07-31T00:04:17;14.50;69.10
71668;DHT22;59504;54.806;9.640;2023-07-31T00:06:17;14.50;69.00
71668;DHT22;59504;54.806;9.640;2023-07-31T00:08:18;14.50;69.70
71668;DHT22;59504;54.806;9.640;2023-07-31T00:10:19;14.50;70.50
71668;DHT22;59504;54.806;9.640;2023-07-31T00:12:20;14.60;70.80
71668;DHT22;59504;54.806;9.640;2023-07-31T00:14:20;14.50;70.40
71668;DHT22;59504;54.806;9.640;2023-07-31T00:16:21;14.50;70.90
71668;DHT22;59504;54.806;9.640;2023-07-31T00:18:21;14.60;70.50
71668;DHT22;59504;54.806;9.640;2023-07-31T00:20:22;14.60;70.20
71668;DHT22;59504;54.806;9.640;2023-07-31T00:22:23;14.60;70.40
71668;DHT22;59504;54.806;9.640;2023-07-31T00:24:24;14.60;70.60
71668;DHT22;59504;54.806;9.640;2023-07-31T00:26:24;14.60;71.00
71668;DHT22;59504;54.806;9.640;2023-07-31T00:28:25;14.60;70.60
71668;DHT22;59504;54.806;9.640;2023-07-31T00:30:25;14.60;70.50
71668;DHT22;59504;54.806;9.640;2023-07-31T00:32:29;14.60;70.60
71668;DHT22;59504;54.806;9.640;2023-07-31T00:34:30;14.50;71.10
71668;DHT22;59504;54.806;9.640;2023-07-31T00:36:31;14.60;70.70
71668;DHT22;59504;54.806;9.640;2023-07-31T00:38:31;14.60;70.60
71668;DHT22;59504;54.806;9.640;2023-07-31T00:40:35;14.60;70.50
71668;DHT22;59504;54.806;9.640;2023-07-31T00:42:43;14.60;70.60
71668;DHT22;59504;54.806;9.640;2023-07-31T00:44:44;14.60;70.60
71668;DHT22;59504;54.806;9.640;2023-07-31T00:46:45;14.70;70.60
71668;DHT22;59504;54.806;9.640;2023-07-31T00:48:45;14.60;70.70
71668;DHT22;59504;54.806;9.640;2023-07-31T00:50:46;14.70;70.60
71668;DHT22;59504;54.806;9.640;2023-07-31T00:52:46;14.60;70.90
71668;DHT22;59504;54.806;9.640;2023-07-31T00:54:47;14.60;71.30
71668;DHT22;59504;54.806;9.640;2023-07-31T00:56:48;14.60;71.10
71668;DHT22;59504;54.806;9.640;2023-07-31T00:58:51;14.70;71.20
71668;DHT22;59504;54.806;9.640;2023-07-31T01:00:51;14.70;71.20
71668;DHT22;59504;54.806;9.640;2023-07-31T01:02:52;14.70;71.20
71668;DHT22;59504;54.806;9.640;2023-07-31T01:04:53;14.70;71.20
71668;DHT22;59504;54.806;9.640;2023-07-31T01:09:07;14.70;71.30
71668;DHT22;59504;54.806;9.640;2023-07-31T01:11:21;14.70;71.20
71668;DHT22;59504;54.806;9.640;2023-07-31T01:13:29;14.70;71.30
71668;DHT22;59504;54.806;9.640;2023-07-31T01:15:30;14.80;71.30
71668;DHT22;59504;54.806;9.640;2023-07-31T01:17:31;14.80;71.30
71668;DHT22;59504;54.806;9.640;2023-07-31T01:19:31;14.80;71.30
71668;DHT22;59504;54.806;9.640;2023-07-31T01:23:45;14.80;71.50
71668;DHT22;59504;54.806;9.640;2023-07-31T01:27:59;14.80;71.20
71668;DHT22;59504;54.806;9.640;2023-07-31T01:30:03;14.80;71.40
71668;DHT22;59504;54.806;9.640;2023-07-31T01:32:10;14.80;72.10
71668;DHT22;59504;54.806;9.640;2023-07-31T01:34:12;14.80;71.30
71668;DHT22;59504;54.806;9.640;2023-07-31T01:36:14;14.90;71.20
71668;DHT22;59504;54.806;9.640;2023-07-31T01:38:15;14.90;71.40
71668;DHT22;59504;54.806;9.640;2023-07-31T01:40:15;14.80;71.20
71668;DHT22;59504;54.806;9.640;2023-07-31T01:42:16;14.90;71.40
71668;DHT22;59504;54.806;9.640;2023-07-31T01:44:17;14.90;71.40
71668;DHT22;59504;54.806;9.640;2023-07-31T01:46:19;14.80;71.40
71668;DHT22;59504;54.806;9.640;2023-07-31T01:48:19;14.80;71.50
71668;DHT22;59504;54.806;9.640;2023-07-31T01:50:20;14.90;71.60
71668;DHT22;59504;54.806;9.640;2023-07-31T01:52:21;14.80;71.40
71668;DHT22;59504;54.806;9.640;2023-07-31T01:54:21;14.80;71.50
71668;DHT22;59504;54.806;9.640;2023-07-31T01:56:22;14.90;71.40
71668;DHT22;59504;54.806;9.640;2023-07-31T01:58:23;14.80;71.40
71668;DHT22;59504;54.806;9.640;2023-07-31T02:00:23;14.80;71.70
71668;DHT22;59504;54.806;9.640;2023-07-31T02:02:24;14.80;71.90
71668;DHT22;59504;54.806;9.640;2023-07-31T02:04:25;14.80;71.60
71668;DHT22;59504;54.806;9.640;2023-07-31T02:06:26;14.80;71.50
71668;DHT22;59504;54.806;9.640;2023-07-31T02:08:31;14.80;71.50
71668;DHT22;59504;54.806;9.640;2023-07-31T02:10:31;14.80;71.10
71668;DHT22;59504;54.806;9.640;2023-07-31T02:12:52;14.80;71.10
71668;DHT22;59504;54.806;9.640;2023-07-31T02:14:52;14.80;71.00
71668;DHT22;59504;54.806;9.640;2023-07-31T02:17:13;14.70;71.10
71668;DHT22;59504;54.806;9.640;2023-07-31T02:19:19;14.70;71.10
71668;DHT22;59504;54.806;9.640;2023-07-31T02:21:39;14.70;71.10
71668;DHT22;59504;54.806;9.640;2023-07-31T02:24:00;14.70;71.00
71668;DHT22;59504;54.806;9.640;2023-07-31T02:26:11;14.80;71.20
71668;DHT22;59504;54.806;9.640;2023-07-31T02:28:32;14.70;71.40
71668;DHT22;59504;54.806;9.640;2023-07-31T02:30:53;14.70;71.40
71668;DHT22;59504;54.806;9.640;2023-07-31T02:33:14;14.70;71.30
71668;DHT22;59504;54.806;9.640;2023-07-31T02:35:36;14.70;71.40
71668;DHT22;59504;54.806;9.640;2023-07-31T02:37:57;14.70;71.50
71668;DHT22;59504;54.806;9.640;2023-07-31T02:40:17;14.70;72.20
71668;DHT22;59504;54.806;9.640;2023-07-31T02:42:38;14.70;72.20
71668;DHT22;59504;54.806;9.640;2023-07-31T02:44:58;14.70;72.10
71668;DHT22;59504;54.806;9.640;2023-07-31T02:47:19;14.70;72.10
71668;DHT22;59504;54.806;9.640;2023-07-31T02:49:40;14.70;72.10
71668;DHT22;59504;54.806;9.640;2023-07-31T02:52:00;14.80;72.60
71668;DHT22;59504;54.806;9.640;2023-07-31T02:54:21;14.70;72.50
71668;DHT22;59504;54.806;9.640;2023-07-31T02:56:22;14.80;72.70
71668;DHT22;59504;54.806;9.640;2023-07-31T02:58:22;14.80;73.00
71668;DHT22;59504;54.806;9.640;2023-07-31T03:00:23;14.80;73.00
71668;DHT22;59504;54.806;9.640;2023-07-31T03:02:24;14.80;72.80
71668;DHT22;59504;54.806;9.640;2023-07-31T03:04:24;14.80;72.80
71668;DHT22;59504;54.806;9.640;2023-07-31T03:06:25;14.80;73.00
71668;DHT22;59504;54.806;9.640;2023-07-31T03:08:27;14.90;73.00
71668;DHT22;59504;54.806;9.640;2023-07-31T03:10:28;14.90;73.00
71668;DHT22;59504;54.806;9.640;2023-07-31T03:12:28;14.90;72.80
71668;DHT22;59504;54.806;9.640;2023-07-31T03:14:29;14.90;72.80
71668;DHT22;59504;54.806;9.640;2023-07-31T03:16:30;14.90;72.70
71668;DHT22;59504;54.806;9.640;2023-07-31T03:18:30;14.90;72.70
71668;DHT22;59504;54.806;9.640;2023-07-31T03:20:31;14.90;72.80
71668;DHT22;59504;54.806;9.640;2023-07-31T03:22:32;15.00;72.70
71668;DHT22;59504;54.806;9.640;2023-07-31T03:24:32;14.90;72.60
71668;DHT22;59504;54.806;9.640;2023-07-31T03:26:33;14.90;72.60
71668;DHT22;59504;54.806;9.640;2023-07-31T03:28:34;15.00;72.60
71668;DHT22;59504;54.806;9.640;2023-07-31T03:30:35;15.00;72.60
71668;DHT22;59504;54.806;9.640;2023-07-31T03:32:37;15.00;72.60
71668;DHT22;59504;54.806;9.640;2023-07-31T03:34:37;15.00;72.80
71668;DHT22;59504;54.806;9.640;2023-07-31T03:36:38;15.00;72.70
71668;DHT22;59504;54.806;9.640;2023-07-31T03:38:41;15.00;72.70
71668;DHT22;59504;54.806;9.640;2023-07-31T03:41:01;15.00;72.60
71668;DHT22;59504;54.806;9.640;2023-07-31T03:43:02;15.00;72.50
71668;DHT22;59504;54.806;9.640;2023-07-31T03:45:03;15.00;72.50
71668;DHT22;59504;54.806;9.640;2023-07-31T03:47:04;15.00;72.60
71668;DHT22;59504;54.806;9.640;2023-07-31T03:49:06;15.00;72.50
71668;DHT22;59504;54.806;9.640;2023-07-31T03:51:06;15.00;72.50
71668;DHT22;59504;54.806;9.640;2023-07-31T03:53:07;15.00;72.60
71668;DHT22;59504;54.806;9.640;2023-07-31T03:55:28;15.00;72.60
71668;DHT22;59504;54.806;9.640;2023-07-31T03:57:28;15.00;72.60
71668;DHT22;59504;54.806;9.640;2023-07-31T03:59:49;15.00;73.40
71668;DHT22;59504;54.806;9.640;2023-07-31T04:01:50;15.00;72.70
71668;DHT22;59504;54.806;9.640;2023-07-31T04:04:10;15.00;72.90
71668;DHT22;59504;54.806;9.640;2023-07-31T04:06:30;15.00;72.60
71668;DHT22;59504;54.806;9.640;2023-07-31T04:08:31;15.00;72.50
71668;DHT22;59504;54.806;9.640;2023-07-31T04:10:52;15.00;72.40
71668;DHT22;59504;54.806;9.640;2023-07-31T04:13:13;15.00;72.40
71668;DHT22;59504;54.806;9.640;2023-07-31T04:15:33;15.00;72.30
71668;DHT22;59504;54.806;9.640;2023-07-31T04:17:54;15.00;73.30
71668;DHT22;59504;54.806;9.640;2023-07-31T04:20:14;15.00;73.00
71668;DHT22;59504;54.806;9.640;2023-07-31T04:22:35;14.90;72.80
71668;DHT22;59504;54.806;9.640;2023-07-31T04:24:56;14.90;72.60
71668;DHT22;59504;54.806;9.640;2023-07-31T04:27:16;14.90;73.00
71668;DHT22;59504;54.806;9.640;2023-07-31T04:29:37;14.90;73.40
71668;DHT22;59504;54.806;9.640;2023-07-31T04:31:57;14.90;73.10
71668;DHT22;59504;54.806;9.640;2023-07-31T04:34:18;14.90;73.30
71668;DHT22;59504;54.806;9.640;2023-07-31T04:36:38;14.90;73.10
71668;DHT22;59504;54.806;9.640;2023-07-31T04:38:59;14.90;73.50
71668;DHT22;59504;54.806;9.640;2023-07-31T04:41:20;14.90;73.50
71668;DHT22;59504;54.806;9.640;2023-07-31T04:43:40;14.90;74.00
71668;DHT22;59504;54.806;9.640;2023-07-31T04:45:47;14.90;74.10
71668;DHT22;59504;54.806;9.640;2023-07-31T04:47:48;14.90;74.50
71668;DHT22;59504;54.806;9.640;2023-07-31T04:49:49;14.90;74.70
71668;DHT22;59504;54.806;9.640;2023-07-31T04:51:49;14.90;74.60
71668;DHT22;59504;54.806;9.640;2023-07-31T04:53:50;14.90;74.60
71668;DHT22;59504;54.806;9.640;2023-07-31T04:55:51;15.00;74.50
71668;DHT22;59504;54.806;9.640;2023-07-31T04:57:51;15.00;75.50
71668;DHT22;59504;54.806;9.640;2023-07-31T05:00:12;15.00;75.00
71668;DHT22;59504;54.806;9.640;2023-07-31T05:02:32;15.00;74.80
71668;DHT22;59504;54.806;9.640;2023-07-31T05:04:33;15.10;75.10
71668;DHT22;59504;54.806;9.640;2023-07-31T05:06:53;15.10;75.80
71668;DHT22;59504;54.806;9.640;2023-07-31T05:09:14;15.10;75.90
71668;DHT22;59504;54.806;9.640;2023-07-31T05:11:37;15.10;75.20
71668;DHT22;59504;54.806;9.640;2023-07-31T05:13:57;15.20;75.10
71668;DHT22;59504;54.806;9.640;2023-07-31T05:16:08;15.10;75.30
71668;DHT22;59504;54.806;9.640;2023-07-31T05:18:29;15.20;76.00
71668;DHT22;59504;54.806;9.640;2023-07-31T05:20:49;15.20;76.20
71668;DHT22;59504;54.806;9.640;2023-07-31T05:22:50;15.30;76.70
71668;DHT22;59504;54.806;9.640;2023-07-31T05:25:11;15.30;76.90
71668;DHT22;59504;54.806;9.640;2023-07-31T05:27:31;15.30;76.50
71668;DHT22;59504;54.806;9.640;2023-07-31T05:29:52;15.30;76.90
71668;DHT22;59504;54.806;9.640;2023-07-31T05:32:13;15.40;76.40
71668;DHT22;59504;54.806;9.640;2023-07-31T05:34:33;15.40;76.70
71668;DHT22;59504;54.806;9.640;2023-07-31T05:36:54;15.40;77.30
71668;DHT22;59504;54.806;9.640;2023-07-31T05:39:14;15.40;77.70
71668;DHT22;59504;54.806;9.640;2023-07-31T05:41:35;15.40;77.20
71668;DHT22;59504;54.806;9.640;2023-07-31T05:43:56;15.40;77.10
71668;DHT22;59504;54.806;9.640;2023-07-31T05:46:16;15.50;77.10
71668;DHT22;59504;54.806;9.640;2023-07-31T05:48:37;15.40;76.40
71668;DHT22;59504;54.806;9.640;2023-07-31T05:50:57;15.40;76.50
71668;DHT22;59504;54.806;9.640;2023-07-31T05:53:18;15.50;76.40
71668;DHT22;59504;54.806;9.640;2023-07-31T05:55:38;15.50;76.30
71668;DHT22;59504;54.806;9.640;2023-07-31T05:57:59;15.50;76.90
71668;DHT22;59504;54.806;9.640;2023-07-31T06:00:19;15.60;76.10
71668;DHT22;59504;54.806;9.640;2023-07-31T06:02:21;15.60;76.10
71668;DHT22;59504;54.806;9.640;2023-07-31T06:04:21;15.70;76.10
71668;DHT22;59504;54.806;9.640;2023-07-31T06:06:22;15.70;77.00
71668;DHT22;59504;54.806;9.640;2023-07-31T06:08:22;15.70;76.60
71668;DHT22;59504;54.806;9.640;2023-07-31T06:10:23;15.70;77.00
71668;DHT22;59504;54.806;9.640;2023-07-31T06:12:23;15.70;76.80
71668;DHT22;59504;54.806;9.640;2023-07-31T06:14:25;15.70;76.60
71668;DHT22;59504;54.806;9.640;2023-07-31T06:16:26;15.70;76.50
71668;DHT22;59504;54.806;9.640;2023-07-31T06:18:27;15.80;76.90
71668;DHT22;59504;54.806;9.640;2023-07-31T06:20:28;15.80;78.20
71668;DHT22;59504;54.806;9.640;2023-07-31T06:22:28;15.90;77.80
71668;DHT22;59504;54.806;9.640;2023-07-31T06:24:29;15.90;78.00
71668;DHT22;59504;54.806;9.640;2023-07-31T06:26:30;16.00;78.00
71668;DHT22;59504;54.806;9.640;2023-07-31T06:28:31;16.10;77.90
71668;DHT22;59504;54.806;9.640;2023-07-31T06:30:31;16.10;77.90
71668;DHT22;59504;54.806;9.640;2023-07-31T06:32:32;16.10;78.30
71668;DHT22;59504;54.806;9.640;2023-07-31T06:34:33;16.20;78.10
71668;DHT22;59504;54.806;9.640;2023-07-31T06:36:33;16.30;78.60
71668;DHT22;59504;54.806;9.640;2023-07-31T06:38:34;16.30;78.90
71668;DHT22;59504;54.806;9.640;2023-07-31T06:40:34;16.40;78.90
71668;DHT22;59504;54.806;9.640;2023-07-31T06:42:35;16.40;79.70
71668;DHT22;59504;54.806;9.640;2023-07-31T06:44:36;16.50;79.20
71668;DHT22;59504;54.806;9.640;2023-07-31T06:46:36;16.60;79.30
71668;DHT22;59504;54.806;9.640;2023-07-31T06:48:37;16.60;79.00
71668;DHT22;59504;54.806;9.640;2023-07-31T06:50:38;16.60;79.80
71668;DHT22;59504;54.806;9.640;2023-07-31T06:52:38;16.70;79.20
71668;DHT22;59504;54.806;9.640;2023-07-31T06:54:39;16.70;79.50
71668;DHT22;59504;54.806;9.640;2023-07-31T06:56:39;16.70;78.00
71668;DHT22;59504;54.806;9.640;2023-07-31T06:58:40;16.70;76.90
71668;DHT22;59504;54.806;9.640;2023-07-31T07:00:40;16.80;77.20
71668;DHT22;59504;54.806;9.640;2023-07-31T07:02:41;16.80;77.00
71668;DHT22;59504;54.806;9.640;2023-07-31T07:04:42;16.80;76.90
71668;DHT22;59504;54.806;9.640;2023-07-31T07:06:42;16.80;76.90
71668;DHT22;59504;54.806;9.640;2023-07-31T07:08:43;16.90;78.30
71668;DHT22;59504;54.806;9.640;2023-07-31T07:10:44;16.90;77.80
71668;DHT22;59504;54.806;9.640;2023-07-31T07:12:45;16.80;77.70
71668;DHT22;59504;54.806;9.640;2023-07-31T07:14:46;16.90;78.20
71668;DHT22;59504;54.806;9.640;2023-07-31T07:16:50;16.90;79.30
71668;DHT22;59504;54.806;9.640;2023-07-31T07:18:51;17.00;79.60
71668;DHT22;59504;54.806;9.640;2023-07-31T07:20:52;16.90;80.60
71668;DHT22;59504;54.806;9.640;2023-07-31T07:22:53;17.00;80.90
71668;DHT22;59504;54.806;9.640;2023-07-31T07:24:54;17.10;80.70
71668;DHT22;59504;54.806;9.640;2023-07-31T07:26:54;17.20;80.70
71668;DHT22;59504;54.806;9.640;2023-07-31T07:28:55;17.20;80.70
71668;DHT22;59504;54.806;9.640;2023-07-31T07:30:56;17.30;80.30
71668;DHT22;59504;54.806;9.640;2023-07-31T07:33:16;17.30;80.00
71668;DHT22;59504;54.806;9.640;2023-07-31T07:35:17;17.40;80.00
71668;DHT22;59504;54.806;9.640;2023-07-31T07:37:19;17.40;79.70
71668;DHT22;59504;54.806;9.640;2023-07-31T07:39:40;17.40;79.40
71668;DHT22;59504;54.806;9.640;2023-07-31T07:42:01;17.50;78.60
71668;DHT22;59504;54.806;9.640;2023-07-31T07:44:22;17.50;79.60
71668;DHT22;59504;54.806;9.640;2023-07-31T07:46:43;17.50;78.60
71668;DHT22;59504;54.806;9.640;2023-07-31T07:49:03;17.60;78.90
71668;DHT22;59504;54.806;9.640;2023-07-31T07:51:24;17.60;78.90
71668;DHT22;59504;54.806;9.640;2023-07-31T07:53:45;17.60;78.50
71668;DHT22;59504;54.806;9.640;2023-07-31T07:56:05;17.60;79.10
71668;DHT22;59504;54.806;9.640;2023-07-31T07:58:26;17.60;78.80
71668;DHT22;59504;54.806;9.640;2023-07-31T08:00:52;17.70;78.40
71668;DHT22;59504;54.806;9.640;2023-07-31T08:03:13;17.60;78.80
71668;DHT22;59504;54.806;9.640;2023-07-31T08:05:33;17.70;78.30
71668;DHT22;59504;54.806;9.640;2023-07-31T08:07:54;17.70;78.60
71668;DHT22;59504;54.806;9.640;2023-07-31T08:10:15;17.80;78.40
71668;DHT22;59504;54.806;9.640;2023-07-31T08:12:35;17.70;78.10
71668;DHT22;59504;54.806;9.640;2023-07-31T08:14:56;17.80;77.90
71668;DHT22;59504;54.806;9.640;2023-07-31T08:17:17;17.80;77.90
71668;DHT22;59504;54.806;9.640;2023-07-31T08:19:38;17.80;78.10
71668;DHT22;59504;54.806;9.640;2023-07-31T08:21:58;17.80;78.10
71668;DHT22;59504;54.806;9.640;2023-07-31T08:24:19;17.90;77.80
71668;DHT22;59504;54.806;9.640;2023-07-31T08:26:23;17.90;77.30
71668;DHT22;59504;54.806;9.640;2023-07-31T08:28:24;18.00;77.90
71668;DHT22;59504;54.806;9.640;2023-07-31T08:30:24;18.00;77.90
71668;DHT22;59504;54.806;9.640;2023-07-31T08:32:25;18.00;77.40
71668;DHT22;59504;54.806;9.640;2023-07-31T08:34:26;18.10;77.50
71668;DHT22;59504;54.806;9.640;2023-07-31T08:36:27;18.00;77.60
71668;DHT22;59504;54.806;9.640;2023-07-31T08:38:27;18.10;77.40
71668;DHT22;59504;54.806;9.640;2023-07-31T08:40:29;18.10;77.70
71668;DHT22;59504;54.806;9.640;2023-07-31T08:42:34;18.10;77.20
71668;DHT22;59504;54.806;9.640;2023-07-31T08:45:03;18.20;76.80
71668;DHT22;59504;54.806;9.640;2023-07-31T08:47:05;18.20;76.90
71668;DHT22;59504;54.806;9.640;2023-07-31T08:49:20;18.30;76.60
71668;DHT22;59504;54.806;9.640;2023-07-31T08:51:42;18.20;76.50
71668;DHT22;59504;54.806;9.640;2023-07-31T08:54:02;18.30;76.30
71668;DHT22;59504;54.806;9.640;2023-07-31T08:56:06;18.30;76.30
71668;DHT22;59504;54.806;9.640;2023-07-31T08:58:30;18.40;76.10
71668;DHT22;59504;54.806;9.640;2023-07-31T09:00:51;18.30;75.80
71668;DHT22;59504;54.806;9.640;2023-07-31T09:03:13;18.30;75.70
71668;DHT22;59504;54.806;9.640;2023-07-31T09:05:35;18.30;76.20
71668;DHT22;59504;54.806;9.640;2023-07-31T09:07:56;18.40;76.00
71668;DHT22;59504;54.806;9.640;2023-07-31T09:10:17;18.40;75.80
71668;DHT22;59504;54.806;9.640;2023-07-31T09:12:38;18.40;76.00
71668;DHT22;59504;54.806;9.640;2023-07-31T09:14:49;18.40;76.00
71668;DHT22;59504;54.806;9.640;2023-07-31T09:18:54;18.50;75.50
71668;DHT22;59504;54.806;9.640;2023-07-31T09:21:05;18.50;75.50
71668;DHT22;59504;54.806;9.640;2023-07-31T09:23:10;18.60;75.40
71668;DHT22;59504;54.806;9.640;2023-07-31T09:27:14;18.60;75.40
71668;DHT22;59504;54.806;9.640;2023-07-31T09:29:34;18.80;75.50
71668;DHT22;59504;54.806;9.640;2023-07-31T09:31:43;18.70;75.50
71668;DHT22;59504;54.806;9.640;2023-07-31T09:34:05;18.80;75.50
71668;DHT22;59504;54.806;9.640;2023-07-31T09:36:28;18.80;75.40
71668;DHT22;59504;54.806;9.640;2023-07-31T09:38:53;18.90;75.40
71668;DHT22;59504;54.806;9.640;2023-07-31T09:41:13;18.90;75.00
71668;DHT22;59504;54.806;9.640;2023-07-31T09:43:34;19.00;74.90
71668;DHT22;59504;54.806;9.640;2023-07-31T09:45:55;19.00;74.70
71668;DHT22;59504;54.806;9.640;2023-07-31T09:48:17;19.00;74.60
71668;DHT22;59504;54.806;9.640;2023-07-31T09:50:38;19.00;74.20
71668;DHT22;59504;54.806;9.640;2023-07-31T09:52:39;19.10;74.00
71668;DHT22;59504;54.806;9.640;2023-07-31T09:54:40;19.20;74.10
71668;DHT22;59504;54.806;9.640;2023-07-31T09:56:45;19.10;73.90
71668;DHT22;59504;54.806;9.640;2023-07-31T09:58:46;19.20;74.00
71668;DHT22;59504;54.806;9.640;2023-07-31T10:00:50;19.20;73.90
71668;DHT22;59504;54.806;9.640;2023-07-31T10:03:10;19.20;73.80
71668;DHT22;59504;54.806;9.640;2023-07-31T10:05:12;19.30;73.50
71668;DHT22;59504;54.806;9.640;2023-07-31T10:07:13;19.30;72.50
71668;DHT22;59504;54.806;9.640;2023-07-31T10:09:36;19.40;71.00
71668;DHT22;59504;54.806;9.640;2023-07-31T10:11:59;19.30;70.20
71668;DHT22;59504;54.806;9.640;2023-07-31T10:14:20;19.30;69.70
71668;DHT22;59504;54.806;9.640;2023-07-31T10:16:40;19.40;69.80
71668;DHT22;59504;54.806;9.640;2023-07-31T10:19:03;19.30;68.00
71668;DHT22;59504;54.806;9.640;2023-07-31T10:21:04;19.30;68.40
71668;DHT22;59504;54.806;9.640;2023-07-31T10:23:04;19.30;68.70
71668;DHT22;59504;54.806;9.640;2023-07-31T10:25:06;19.30;68.80
71668;DHT22;59504;54.806;9.640;2023-07-31T10:27:08;19.30;68.30
71668;DHT22;59504;54.806;9.640;2023-07-31T10:29:09;19.30;68.10
71668;DHT22;59504;54.806;9.640;2023-07-31T10:31:09;19.30;67.70
71668;DHT22;59504;54.806;9.640;2023-07-31T10:33:10;19.30;67.80
71668;DHT22;59504;54.806;9.640;2023-07-31T10:35:11;19.20;67.60
71668;DHT22;59504;54.806;9.640;2023-07-31T10:37:23;19.20;67.80
71668;DHT22;59504;54.806;9.640;2023-07-31T10:39:36;19.20;67.90
71668;DHT22;59504;54.806;9.640;2023-07-31T10:41:57;19.10;67.50
71668;DHT22;59504;54.806;9.640;2023-07-31T10:44:17;19.10;67.50
71668;DHT22;59504;54.806;9.640;2023-07-31T10:46:38;19.00;67.50
71668;DHT22;59504;54.806;9.640;2023-07-31T10:49:00;19.00;67.50
71668;DHT22;59504;54.806;9.640;2023-07-31T10:51:21;18.90;67.80
71668;DHT22;59504;54.806;9.640;2023-07-31T10:53:42;18.90;68.00
71668;DHT22;59504;54.806;9.640;2023-07-31T10:58:24;18.80;68.80
71668;DHT22;59504;54.806;9.640;2023-07-31T11:00:45;18.80;69.20
71668;DHT22;59504;54.806;9.640;2023-07-31T11:02:58;18.70;69.30
71668;DHT22;59504;54.806;9.640;2023-07-31T11:05:19;18.70;69.50
71668;DHT22;59504;54.806;9.640;2023-07-31T11:07:22;18.70;69.70
71668;DHT22;59504;54.806;9.640;2023-07-31T11:09:43;18.70;70.60
71668;DHT22;59504;54.806;9.640;2023-07-31T11:12:03;18.70;70.10
71668;DHT22;59504;54.806;9.640;2023-07-31T11:14:24;18.70;70.20
71668;DHT22;59504;54.806;9.640;2023-07-31T11:16:44;18.70;70.40
71668;DHT22;59504;54.806;9.640;2023-07-31T11:18:45;18.70;70.40
71668;DHT22;59504;54.806;9.640;2023-07-31T11:20:47;18.70;70.30
71668;DHT22;59504;54.806;9.640;2023-07-31T11:22:48;18.70;70.50
71668;DHT22;59504;54.806;9.640;2023-07-31T11:24:49;18.70;70.50
71668;DHT22;59504;54.806;9.640;2023-07-31T11:26:52;18.70;70.50
71668;DHT22;59504;54.806;9.640;2023-07-31T11:29:13;18.70;70.60
71668;DHT22;59504;54.806;9.640;2023-07-31T11:31:14;18.70;70.80
71668;DHT22;59504;54.806;9.640;2023-07-31T11:33:15;18.70;70.60
71668;DHT22;59504;54.806;9.640;2023-07-31T11:35:19;18.70;70.50
71668;DHT22;59504;54.806;9.640;2023-07-31T11:37:40;18.70;70.50
71668;DHT22;59504;54.806;9.640;2023-07-31T11:40:01;18.70;70.40
71668;DHT22;59504;54.806;9.640;2023-07-31T11:42:22;18.80;70.50
71668;DHT22;59504;54.806;9.640;2023-07-31T11:44:40;18.80;70.50
71668;DHT22;59504;54.806;9.640;2023-07-31T11:47:01;18.80;70.60
71668;DHT22;59504;54.806;9.640;2023-07-31T11:49:22;18.80;70.70
71668;DHT22;59504;54.806;9.640;2023-07-31T11:51:42;18.90;70.80
71668;DHT22;59504;54.806;9.640;2023-07-31T11:54:03;18.90;70.40
71668;DHT22;59504;54.806;9.640;2023-07-31T11:56:24;18.90;70.30
71668;DHT22;59504;54.806;9.640;2023-07-31T11:58:48;18.90;69.50
71668;DHT22;59504;54.806;9.640;2023-07-31T12:01:09;19.00;69.00
71668;DHT22;59504;54.806;9.640;2023-07-31T12:03:30;19.00;67.80
71668;DHT22;59504;54.806;9.640;2023-07-31T12:05:52;19.00;66.90
71668;DHT22;59504;54.806;9.640;2023-07-31T12:08:13;19.10;66.10
71668;DHT22;59504;54.806;9.640;2023-07-31T12:10:27;19.10;66.30
71668;DHT22;59504;54.806;9.640;2023-07-31T12:12:37;19.10;66.00
71668;DHT22;59504;54.806;9.640;2023-07-31T12:14:38;19.20;66.40
71668;DHT22;59504;54.806;9.640;2023-07-31T12:16:41;19.20;66.80
71668;DHT22;59504;54.806;9.640;2023-07-31T12:18:50;19.20;66.40
71668;DHT22;59504;54.806;9.640;2023-07-31T12:21:11;19.30;66.00
71668;DHT22;59504;54.806;9.640;2023-07-31T12:23:32;19.30;66.20
71668;DHT22;59504;54.806;9.640;2023-07-31T12:26:33;19.30;66.30
71668;DHT22;59504;54.806;9.640;2023-07-31T12:28:41;19.30;66.00
71668;DHT22;59504;54.806;9.640;2023-07-31T12:31:01;19.30;65.30
71668;DHT22;59504;54.806;9.640;2023-07-31T12:33:22;19.40;64.10
71668;DHT22;59504;54.806;9.640;2023-07-31T12:35:36;19.40;64.50
71668;DHT22;59504;54.806;9.640;2023-07-31T12:37:56;19.40;65.00
71668;DHT22;59504;54.806;9.640;2023-07-31T12:40:21;19.40;64.60
71668;DHT22;59504;54.806;9.640;2023-07-31T12:42:41;19.40;64.20
71668;DHT22;59504;54.806;9.640;2023-07-31T12:44:51;19.50;65.10
71668;DHT22;59504;54.806;9.640;2023-07-31T12:47:12;19.50;64.80
71668;DHT22;59504;54.806;9.640;2023-07-31T12:49:32;19.60;63.90
71668;DHT22;59504;54.806;9.640;2023-07-31T12:51:53;19.50;64.20
71668;DHT22;59504;54.806;9.640;2023-07-31T12:54:14;19.50;62.50
71668;DHT22;59504;54.806;9.640;2023-07-31T12:56:34;19.60;63.00
71668;DHT22;59504;54.806;9.640;2023-07-31T12:58:55;19.60;63.80
71668;DHT22;59504;54.806;9.640;2023-07-31T13:01:15;19.70;62.90
71668;DHT22;59504;54.806;9.640;2023-07-31T13:03:16;19.70;63.00
71668;DHT22;59504;54.806;9.640;2023-07-31T13:05:37;19.70;63.30
71668;DHT22;59504;54.806;9.640;2023-07-31T13:07:57;19.60;61.60
71668;DHT22;59504;54.806;9.640;2023-07-31T13:10:18;19.60;62.40
71668;DHT22;59504;54.806;9.640;2023-07-31T13:12:38;19.60;62.10
71668;DHT22;59504;54.806;9.640;2023-07-31T13:14:59;19.70;62.10
71668;DHT22;59504;54.806;9.640;2023-07-31T13:17:20;19.70;63.20
71668;DHT22;59504;54.806;9.640;2023-07-31T13:19:40;19.70;62.40
71668;DHT22;59504;54.806;9.640;2023-07-31T13:21:44;19.70;62.50
71668;DHT22;59504;54.806;9.640;2023-07-31T13:23:44;19.70;63.10
71668;DHT22;59504;54.806;9.640;2023-07-31T13:25:45;19.70;62.50
71668;DHT22;59504;54.806;9.640;2023-07-31T13:27:45;19.70;62.30
71668;DHT22;59504;54.806;9.640;2023-07-31T13:29:46;19.80;61.60
71668;DHT22;59504;54.806;9.640;2023-07-31T13:31:59;19.80;62.80
71668;DHT22;59504;54.806;9.640;2023-07-31T13:34:06;19.80;62.30
71668;DHT22;59504;54.806;9.640;2023-07-31T13:36:06;19.80;62.00
71668;DHT22;59504;54.806;9.640;2023-07-31T13:38:07;19.80;62.20
71668;DHT22;59504;54.806;9.640;2023-07-31T13:40:08;19.90;63.10
71668;DHT22;59504;54.806;9.640;2023-07-31T13:42:09;19.80;62.50
71668;DHT22;59504;54.806;9.640;2023-07-31T13:46:17;19.90;63.20
71668;DHT22;59504;54.806;9.640;2023-07-31T13:51:22;20.00;62.70
71668;DHT22;59504;54.806;9.640;2023-07-31T13:53:29;20.00;63.30
71668;DHT22;59504;54.806;9.640;2023-07-31T13:55:30;20.10;63.70
71668;DHT22;59504;54.806;9.640;2023-07-31T13:57:31;20.10;61.70